MMGL/GDL METAR and TAF weather

Enter ICAO airport designator
Station Type Date Time Source
MMGL METAR 2024/04/15 07:40 UTC NOAA

MMGL 150740Z 26007KT 8SM FEW300 21/05 A3015 RMK 8/001


Station Type Date Time Source
MMGL Decoded METAR 2024/04/15 07:40 UTC NOAA

Don Miguel / Guadalaj, Mexico (MMGL) 20-31N 103-19W
Apr 15, 2024 - 03:40 AM EDT / 2024.04.15 0740 UTC
Wind: from the W (260 degrees) at 8 MPH (7 KT):0
Visibility: 8 mile(s):0
Sky conditions: mostly clear
Temperature: 69 F (21 C)
Dew Point: 41 F (5 C)
Relative Humidity: 35%
Pressure (altimeter): 30.15 in. Hg (1020 hPa)
ob: MMGL 150740Z 26007KT 8SM FEW300 21/05 A3015 RMK 8/001
cycle: 7

Station Type Date Time Source
MMGL TAF 2024/04/15 06:36 UTC NOAA